Time;durP1;ratioP1;P1;durP2;ratioP2;P2;SDS_P1;SDS_P2;PMS_P1;PMS_P2;Temp;Humidity;BMP_temperature;BMP_pressure;BME280_temperature;BME280_humidity;BME280_pressure;Samples;Min_cycle;Max_cycle;Signal;HPM_P1;HPM_P2
2022/06/26 00:02:12;;;;;;;17.85;9.20;;;22.60;72.80;;;;;;5072860;28;20061;-14
2022/06/26 00:04:38;;;;;;;15.00;8.85;;;22.60;76.40;;;;;;5071515;28;20119;-14
2022/06/26 00:07:04;;;;;;;17.60;9.27;;;22.60;77.10;;;;;;5072790;28;20039;-13
2022/06/26 00:09:30;;;;;;;14.77;7.97;;;22.60;76.80;;;;;;5072858;28;20537;-13
2022/06/26 00:11:57;;;;;;;13.30;7.38;;;22.60;75.90;;;;;;5072715;28;20123;-13
2022/06/26 00:14:23;;;;;;;14.57;8.02;;;22.60;75.30;;;;;;5072913;28;20101;-13
2022/06/26 00:16:49;;;;;;;16.63;7.90;;;22.60;75.60;;;;;;5072962;28;20037;-13
2022/06/26 00:19:15;;;;;;;17.48;9.27;;;22.60;75.90;;;;;;5073028;28;20066;-12
2022/06/26 00:21:41;;;;;;;15.20;8.57;;;22.50;75.70;;;;;;5072660;28;20035;-13
2022/06/26 00:24:07;;;;;;;16.00;8.20;;;22.50;76.40;;;;;;5072629;28;20119;-13
2022/06/26 00:26:33;;;;;;;18.77;9.95;;;22.50;76.40;;;;;;5071184;28;20039;-13
2022/06/26 00:28:59;;;;;;;15.88;8.23;;;22.50;76.50;;;;;;5072516;28;20028;-13
2022/06/26 00:31:25;;;;;;;16.27;9.05;;;22.50;76.90;;;;;;5072779;28;20071;-13
2022/06/26 00:33:51;;;;;;;18.52;10.50;;;22.40;77.60;;;;;;5072879;28;20473;-14
2022/06/26 00:36:17;;;;;;;14.95;9.65;;;22.40;78.40;;;;;;5072266;28;20033;-13
2022/06/26 00:38:43;;;;;;;18.27;9.88;;;22.40;77.80;;;;;;5072509;28;20028;-11
2022/06/26 00:41:09;;;;;;;18.98;11.55;;;22.40;78.10;;;;;;5072920;28;20025;-12
2022/06/26 00:43:35;;;;;;;19.70;11.70;;;22.40;80.30;;;;;;5072388;28;20074;-13
2022/06/26 00:46:03;;;;;;;17.98;10.98;;;22.30;82.20;;;;;;5072516;28;20009;-12
2022/06/26 00:48:29;;;;;;;21.20;11.90;;;22.30;80.40;;;;;;5072290;28;20027;-12
2022/06/26 00:50:55;;;;;;;22.50;11.85;;;22.30;81.70;;;;;;5072483;28;20107;-13
2022/06/26 00:53:22;;;;;;;20.33;10.98;;;22.30;80.70;;;;;;5071177;28;20029;-13
2022/06/26 00:55:48;;;;;;;23.65;12.10;;;22.20;80.60;;;;;;5072841;28;20041;-12
2022/06/26 00:58:15;;;;;;;20.77;11.90;;;22.20;80.90;;;;;;5075744;28;20543;-13
2022/06/26 01:00:42;;;;;;;21.08;11.60;;;22.20;81.50;;;;;;5075901;28;20021;-13
2022/06/26 01:03:08;;;;;;;19.75;10.95;;;22.20;81.60;;;;;;5075830;28;20043;-13
2022/06/26 01:05:34;;;;;;;17.35;8.98;;;22.10;81.20;;;;;;5075701;28;20024;-13
2022/06/26 01:08:01;;;;;;;17.27;9.57;;;22.10;79.80;;;;;;5076131;28;20035;-13
2022/06/26 01:10:27;;;;;;;17.73;10.18;;;22.10;80.00;;;;;;5075807;28;20082;-12
2022/06/26 01:12:54;;;;;;;19.55;10.40;;;22.10;80.30;;;;;;5075494;28;20492;-13
2022/06/26 01:15:21;;;;;;;18.80;10.00;;;22.10;80.50;;;;;;5075417;28;20037;-14
2022/06/26 01:17:47;;;;;;;19.80;11.15;;;22.00;80.60;;;;;;5075590;28;20078;-13
2022/06/26 01:20:13;;;;;;;19.88;10.73;;;22.00;80.30;;;;;;5075885;28;20036;-13
2022/06/26 01:22:39;;;;;;;13.98;8.73;;;22.00;81.60;;;;;;5075496;28;20052;-14
2022/06/26 01:25:05;;;;;;;16.48;10.75;;;21.90;81.40;;;;;;5075471;28;20070;-13
2022/06/26 01:27:40;;;;;;;17.30;10.55;;;21.90;82.40;;;;;;5075717;28;20116;-13
2022/06/26 01:30:07;;;;;;;17.63;10.40;;;21.90;81.30;;;;;;5075530;28;20078;-13
2022/06/26 01:32:33;;;;;;;18.58;9.68;;;21.90;82.10;;;;;;5075130;28;20104;-13
2022/06/26 01:34:59;;;;;;;16.00;9.57;;;21.90;81.80;;;;;;5075303;28;20119;-12
2022/06/26 01:37:25;;;;;;;19.63;10.77;;;21.90;82.50;;;;;;5075367;28;20111;-12
2022/06/26 01:39:50;;;;;;;19.65;12.32;;;21.90;82.20;;;;;;5075514;28;20077;-13
2022/06/26 01:42:16;;;;;;;20.00;10.02;;;21.90;83.20;;;;;;5073692;28;20579;-15
2022/06/26 01:44:42;;;;;;;17.88;9.50;;;21.90;82.90;;;;;;5075018;28;20485;-13
2022/06/26 01:47:08;;;;;;;21.98;11.82;;;21.90;82.40;;;;;;5075261;28;20107;-12
2022/06/26 01:49:34;;;;;;;20.58;10.27;;;21.80;83.30;;;;;;5075013;28;20120;-13
2022/06/26 01:52:00;;;;;;;21.30;10.07;;;21.80;83.20;;;;;;5075084;28;20025;-12
2022/06/26 01:54:26;;;;;;;18.60;10.32;;;21.80;82.80;;;;;;5074674;28;20075;-11
2022/06/26 01:56:52;;;;;;;25.65;13.43;;;21.80;83.10;;;;;;5075041;28;20037;-14
2022/06/26 01:59:18;;;;;;;24.52;12.40;;;21.80;85.50;;;;;;5074719;28;20024;-13
2022/06/26 02:01:44;;;;;;;17.45;11.05;;;21.80;83.70;;;;;;5073408;28;20025;-13
2022/06/26 02:04:16;;;;;;;15.75;9.43;;;21.80;83.90;;;;;;5074801;28;20102;-12
2022/06/26 02:06:43;;;;;;;17.27;10.43;;;21.80;82.80;;;;;;5074624;28;20052;-12
2022/06/26 02:13:36;;;;;;;22.73;13.70;;;21.80;83.10;;;;;;5073749;28;20472;-11
2022/06/26 02:14:39;;;;;;;19.70;10.57;;;21.80;84.70;;;;;;5075050;28;20119;-13
2022/06/26 02:17:05;;;;;;;16.90;10.73;;;21.80;83.90;;;;;;5074350;28;20528;-13
2022/06/26 02:19:31;;;;;;;21.70;11.48;;;21.80;83.80;;;;;;5074362;28;20495;-13
2022/06/26 02:21:57;;;;;;;26.23;13.18;;;21.70;84.10;;;;;;5074273;28;20052;-13
2022/06/26 02:24:23;;;;;;;19.98;10.48;;;21.80;84.90;;;;;;5074387;28;20020;-14
2022/06/26 02:26:49;;;;;;;20.35;12.52;;;21.80;83.70;;;;;;5074551;28;20024;-12
2022/06/26 02:29:15;;;;;;;19.02;11.95;;;21.80;84.80;;;;;;5074722;28;20029;-13
2022/06/26 02:31:41;;;;;;;23.85;12.52;;;21.80;84.30;;;;;;5072929;28;20035;-12
2022/06/26 02:34:07;;;;;;;22.42;13.32;;;21.70;84.00;;;;;;5074095;28;20029;-12
2022/06/26 02:36:33;;;;;;;19.92;12.40;;;21.70;84.90;;;;;;5073930;28;20487;-12
2022/06/26 02:38:59;;;;;;;22.48;12.52;;;21.70;84.20;;;;;;5073996;28;20032;-12
2022/06/26 02:41:25;;;;;;;20.90;10.90;;;21.70;83.90;;;;;;5074020;28;20033;-12
2022/06/26 02:43:51;;;;;;;21.75;11.30;;;21.70;83.90;;;;;;5073801;28;20111;-13
2022/06/26 02:46:17;;;;;;;22.50;10.60;;;21.70;83.90;;;;;;5073980;28;20016;-12
2022/06/26 02:48:44;;;;;;;17.65;10.48;;;21.60;84.10;;;;;;5073881;28;20464;-13
2022/06/26 02:51:10;;;;;;;22.05;11.90;;;21.60;83.80;;;;;;5074085;28;20025;-14
2022/06/26 02:53:36;;;;;;;17.35;10.02;;;21.60;84.00;;;;;;5074096;28;20442;-13
2022/06/26 02:56:02;;;;;;;18.15;10.70;;;21.50;83.50;;;;;;5073619;28;20036;-12
2022/06/26 02:58:28;;;;;;;18.50;10.27;;;21.50;84.30;;;;;;5073708;28;20032;-13
2022/06/26 03:00:54;;;;;;;22.25;11.00;;;21.50;84.10;;;;;;5073851;28;20032;-13
2022/06/26 03:03:19;;;;;;;21.88;11.70;;;21.50;84.20;;;;;;5073883;28;20395;-13
2022/06/26 03:05:45;;;;;;;18.33;10.88;;;21.50;84.50;;;;;;5073861;28;20021;-13
2022/06/26 03:08:11;;;;;;;19.73;10.88;;;21.50;84.00;;;;;;5073485;28;20369;-14
2022/06/26 03:10:37;;;;;;;20.70;10.90;;;21.50;84.10;;;;;;5073247;28;20082;-13
2022/06/26 03:13:03;;;;;;;16.40;10.13;;;21.40;83.90;;;;;;5073392;28;20044;-12
2022/06/26 03:15:29;;;;;;;16.73;10.73;;;21.40;84.00;;;;;;5073533;28;20100;-13
2022/06/26 03:17:55;;;;;;;17.90;11.43;;;21.40;84.10;;;;;;5072150;28;20480;-15
2022/06/26 03:20:21;;;;;;;18.35;11.98;;;21.40;84.40;;;;;;5072792;28;20028;-11
2022/06/26 03:22:47;;;;;;;18.35;10.75;;;21.40;84.30;;;;;;5073551;28;20021;-14
2022/06/26 03:25:14;;;;;;;19.77;10.63;;;21.40;84.30;;;;;;5072085;28;20029;-13
2022/06/26 03:27:40;;;;;;;16.20;10.52;;;21.40;83.60;;;;;;5073157;28;20031;-14
2022/06/26 03:30:08;;;;;;;17.77;9.98;;;21.40;83.90;;;;;;5073636;28;20103;-15
2022/06/26 03:32:34;;;;;;;14.52;9.00;;;21.40;83.40;;;;;;5072992;28;20054;-13
2022/06/26 03:35:00;;;;;;;20.08;11.93;;;21.30;83.40;;;;;;5073419;28;20028;-13
2022/06/26 03:37:26;;;;;;;17.95;9.93;;;21.30;83.60;;;;;;5073385;28;20032;-13
2022/06/26 03:39:52;;;;;;;13.52;9.38;;;21.30;83.90;;;;;;5073072;28;20391;-13
2022/06/26 03:42:18;;;;;;;16.55;11.55;;;21.30;84.10;;;;;;5073338;28;20028;-14
2022/06/26 03:44:44;;;;;;;17.58;9.90;;;21.30;84.80;;;;;;5071721;28;20064;-13
2022/06/26 03:47:09;;;;;;;16.98;9.95;;;21.30;84.50;;;;;;5072987;28;20071;-13
2022/06/26 03:49:35;;;;;;;17.15;10.93;;;21.30;84.40;;;;;;5073284;28;20020;-13
2022/06/26 03:52:03;;;;;;;21.25;11.82;;;21.30;84.00;;;;;;5073303;28;20103;-13
2022/06/26 03:54:30;;;;;;;16.00;10.50;;;21.40;84.10;;;;;;5072731;28;20119;-13
2022/06/26 03:56:56;;;;;;;14.73;9.65;;;21.40;84.10;;;;;;5071687;28;20025;-12
2022/06/26 03:59:22;;;;;;;15.32;9.32;;;21.40;83.90;;;;;;5072738;28;20495;-14
2022/06/26 04:01:48;;;;;;;17.75;9.85;;;21.40;83.60;;;;;;5073172;28;20099;-12
2022/06/26 04:04:14;;;;;;;15.27;8.85;;;21.40;83.60;;;;;;5073491;28;20111;-14
2022/06/26 04:06:40;;;;;;;14.52;8.85;;;21.40;83.60;;;;;;5073095;28;20100;-14
2022/06/26 04:09:06;;;;;;;14.35;9.55;;;21.40;83.30;;;;;;5072797;28;20468;-13
2022/06/26 04:11:32;;;;;;;13.75;9.48;;;21.50;82.90;;;;;;5072822;28;20040;-13
2022/06/26 04:13:58;;;;;;;17.05;9.07;;;21.50;83.20;;;;;;5071460;28;20491;-13
2022/06/26 04:16:24;;;;;;;16.73;9.55;;;21.60;83.00;;;;;;5073069;28;20115;-12
2022/06/26 04:18:50;;;;;;;18.20;10.38;;;21.60;83.10;;;;;;5073025;28;20035;-13
2022/06/26 04:21:16;;;;;;;17.65;8.43;;;21.70;83.10;;;;;;5073300;28;20361;-13
2022/06/26 04:23:42;;;;;;;15.35;8.27;;;21.70;82.90;;;;;;5072624;28;20032;-12
2022/06/26 04:26:08;;;;;;;10.75;7.53;;;21.80;82.10;;;;;;5073261;28;20033;-13
2022/06/26 04:28:34;;;;;;;18.77;10.55;;;21.80;82.00;;;;;;5071188;28;20036;-12
2022/06/26 04:31:00;;;;;;;16.73;9.65;;;21.90;81.80;;;;;;5073766;28;20032;-14
2022/06/26 04:33:26;;;;;;;15.48;8.77;;;21.90;81.60;;;;;;5076424;28;20119;-14
2022/06/26 04:35:53;;;;;;;15.30;8.15;;;22.00;81.40;;;;;;5076291;28;20025;-12
2022/06/26 04:38:18;;;;;;;19.50;10.75;;;22.10;81.10;;;;;;5076491;28;20029;-12
2022/06/26 04:40:46;;;;;;;13.75;8.13;;;22.10;81.10;;;;;;5076624;28;20021;-14
2022/06/26 04:43:12;;;;;;;12.73;8.27;;;22.20;81.00;;;;;;5076493;28;20077;-13
2022/06/26 04:45:38;;;;;;;16.58;9.52;;;22.30;81.00;;;;;;5075970;28;20454;-12
2022/06/26 04:48:04;;;;;;;17.67;9.18;;;22.40;81.40;;;;;;5076207;28;20029;-13
2022/06/26 04:50:30;;;;;;;14.75;8.80;;;22.50;81.20;;;;;;5076157;28;20047;-13
2022/06/26 04:52:56;;;;;;;11.88;7.47;;;22.60;80.50;;;;;;5076385;28;20476;-13
2022/06/26 04:55:22;;;;;;;13.32;7.95;;;22.70;80.00;;;;;;5076283;28;20437;-12
2022/06/26 04:57:49;;;;;;;18.20;8.90;;;22.80;80.00;;;;;;5075955;28;20045;-12
2022/06/26 05:00:16;;;;;;;16.77;9.68;;;22.90;79.90;;;;;;5075938;28;20032;-13
2022/06/26 05:02:42;;;;;;;17.40;10.10;;;22.90;79.60;;;;;;5075889;28;20029;-11
2022/06/26 05:05:08;;;;;;;16.60;9.40;;;23.00;79.80;;;;;;5076171;28;20032;-13
2022/06/26 05:07:34;;;;;;;16.98;9.55;;;23.10;79.60;;;;;;5076013;28;20021;-10
2022/06/26 05:10:00;;;;;;;15.20;7.95;;;23.20;79.40;;;;;;5075885;28;20472;-13
2022/06/26 05:12:27;;;;;;;15.25;8.35;;;23.30;79.30;;;;;;5075383;28;20041;-13
2022/06/26 05:14:53;;;;;;;15.35;7.78;;;23.40;79.00;;;;;;5075644;28;20032;-13
2022/06/26 05:17:19;;;;;;;12.60;7.95;;;23.50;78.90;;;;;;5075530;28;20115;-13
2022/06/26 05:19:44;;;;;;;17.08;8.45;;;23.60;78.80;;;;;;5074303;28;20128;-12
2022/06/26 05:22:10;;;;;;;11.00;6.70;;;23.70;78.60;;;;;;5075542;28;20031;-13
2022/06/26 05:24:36;;;;;;;14.93;7.55;;;23.80;77.90;;;;;;5075619;28;20024;-12
2022/06/26 05:27:02;;;;;;;15.45;7.53;;;23.90;77.70;;;;;;5075651;28;20437;-12
2022/06/26 05:29:28;;;;;;;16.98;7.88;;;24.00;77.50;;;;;;5075637;28;20365;-12
2022/06/26 05:31:54;;;;;;;14.23;7.18;;;24.10;77.50;;;;;;5075676;28;20514;-13
2022/06/26 05:34:20;;;;;;;17.83;8.43;;;24.20;77.10;;;;;;5075380;28;20021;-13
2022/06/26 05:36:46;;;;;;;15.48;7.40;;;24.30;77.00;;;;;;5075198;28;20021;-12
2022/06/26 05:39:12;;;;;;;13.48;6.85;;;24.30;76.50;;;;;;5075557;28;20028;-13
2022/06/26 05:41:38;;;;;;;18.60;7.95;;;24.40;76.20;;;;;;5074789;28;20430;-13
2022/06/26 05:44:04;;;;;;;13.50;6.90;;;24.60;76.20;;;;;;5075066;28;20029;-13
2022/06/26 05:46:30;;;;;;;16.27;6.70;;;24.60;75.80;;;;;;5075525;28;20031;-13
2022/06/26 05:48:56;;;;;;;12.35;6.75;;;24.70;75.60;;;;;;5075345;28;20021;-13
2022/06/26 05:51:22;;;;;;;18.25;8.50;;;24.80;75.10;;;;;;5075299;28;20032;-13
2022/06/26 05:53:48;;;;;;;13.90;7.10;;;24.90;75.10;;;;;;5075541;28;20430;-12
2022/06/26 05:56:14;;;;;;;13.65;6.90;;;24.90;74.90;;;;;;5074624;28;20028;-13
2022/06/26 05:58:40;;;;;;;14.05;6.93;;;25.10;74.70;;;;;;5075190;28;20033;-12
2022/06/26 06:01:06;;;;;;;15.35;7.22;;;25.20;74.20;;;;;;5075018;28;20108;-13
2022/06/26 06:03:31;;;;;;;12.20;6.05;;;25.20;73.90;;;;;;5074723;28;20055;-13
2022/06/26 06:05:58;;;;;;;10.20;6.32;;;25.40;73.90;;;;;;5075020;28;20020;-13
2022/06/26 06:08:24;;;;;;;14.52;6.55;;;25.40;73.60;;;;;;5074629;28;20384;-12
2022/06/26 06:10:51;;;;;;;13.93;7.07;;;25.50;73.10;;;;;;5074575;28;20025;-13
2022/06/26 06:13:16;;;;;;;13.40;6.20;;;25.60;72.60;;;;;;5074579;28;20063;-12
2022/06/26 06:15:42;;;;;;;12.30;5.95;;;25.50;72.60;;;;;;5074323;28;20381;-13
2022/06/26 06:18:08;;;;;;;13.07;6.47;;;25.50;72.60;;;;;;5073222;28;20025;-13
2022/06/26 06:20:34;;;;;;;9.30;5.95;;;25.60;72.50;;;;;;5074498;28;20074;-13
2022/06/26 06:23:03;;;;;;;13.32;6.43;;;25.70;72.00;;;;;;5074595;28;20079;-14
2022/06/26 06:25:29;;;;;;;11.32;6.15;;;25.70;71.90;;;;;;5074565;28;20426;-13
2022/06/26 06:27:55;;;;;;;14.93;6.75;;;25.80;71.90;;;;;;5074332;28;20020;-13
2022/06/26 06:30:21;;;;;;;14.55;6.75;;;25.90;71.30;;;;;;5074196;28;20037;-14
2022/06/26 06:32:48;;;;;;;11.18;6.30;;;26.00;71.20;;;;;;5074450;28;20032;-13
2022/06/26 06:35:15;;;;;;;13.77;6.20;;;26.00;71.00;;;;;;5074116;28;20044;-13
2022/06/26 06:37:42;;;;;;;18.63;6.32;;;26.20;70.90;;;;;;5074663;28;20499;-13
2022/06/26 06:40:11;;;;;;;13.63;6.15;;;26.30;70.50;;;;;;5074025;28;20044;-13
2022/06/26 06:42:37;;;;;;;13.02;6.13;;;26.40;70.00;;;;;;5073853;28;20099;-13
2022/06/26 06:45:04;;;;;;;13.07;5.75;;;26.50;69.60;;;;;;5074061;28;20025;-13
2022/06/26 06:47:30;;;;;;;11.27;5.18;;;26.60;69.20;;;;;;5073853;28;20396;-13
2022/06/26 06:49:56;;;;;;;11.23;5.72;;;26.60;69.10;;;;;;5073794;28;20472;-12
2022/06/26 06:52:22;;;;;;;16.15;6.68;;;26.70;68.80;;;;;;5073631;28;20089;-13
2022/06/26 06:54:48;;;;;;;10.38;5.30;;;26.70;68.50;;;;;;5073476;28;20074;-12
2022/06/26 06:57:14;;;;;;;12.45;5.97;;;26.90;68.20;;;;;;5073639;28;20094;-12
2022/06/26 06:59:40;;;;;;;11.80;5.20;;;27.00;67.70;;;;;;5073899;28;20028;-13
2022/06/26 07:02:07;;;;;;;10.77;5.63;;;27.10;67.20;;;;;;5073957;28;20438;-12
2022/06/26 07:04:33;;;;;;;12.98;4.97;;;27.20;66.50;;;;;;5073680;28;20075;-13
2022/06/26 07:06:59;;;;;;;9.60;4.70;;;27.20;66.40;;;;;;5073522;28;20479;-12
2022/06/26 07:09:25;;;;;;;11.50;4.97;;;27.30;66.20;;;;;;5073818;28;20033;-13
2022/06/26 07:11:51;;;;;;;14.98;5.07;;;27.40;65.90;;;;;;5072065;28;20581;-13
2022/06/26 07:14:17;;;;;;;11.32;4.95;;;27.50;65.50;;;;;;5073475;28;20017;-13
2022/06/26 07:16:43;;;;;;;10.70;4.63;;;27.80;65.00;;;;;;5073938;28;20039;-13
2022/06/26 07:19:09;;;;;;;9.95;4.85;;;28.00;62.60;;;;;;5073366;28;20396;-13
2022/06/26 07:21:34;;;;;;;12.32;4.65;;;28.20;63.10;;;;;;5073958;28;20023;-13
2022/06/26 07:24:00;;;;;;;12.85;4.97;;;28.30;62.30;;;;;;5073588;28;20052;-13
2022/06/26 07:26:26;;;;;;;11.30;4.38;;;28.40;61.40;;;;;;5073170;28;20472;-13
2022/06/26 07:28:52;;;;;;;10.50;4.90;;;28.50;61.50;;;;;;5073149;28;20495;-12
2022/06/26 07:31:18;;;;;;;12.02;4.80;;;28.70;61.30;;;;;;5073498;28;20086;-13
2022/06/26 07:36:32;;;;;;;10.63;5.13;;;28.70;60.70;;;;;;5073444;28;20043;-12
2022/06/26 07:38:58;;;;;;;14.25;4.72;;;28.90;60.30;;;;;;5073096;28;20028;-12
2022/06/26 07:41:24;;;;;;;11.05;4.93;;;29.00;58.80;;;;;;5073109;28;20506;-12
2022/06/26 07:43:50;;;;;;;12.98;4.82;;;29.20;59.90;;;;;;5073401;28;20112;-12
2022/06/26 07:46:15;;;;;;;10.32;5.05;;;29.30;59.70;;;;;;5073056;28;20021;-12
2022/06/26 07:48:41;;;;;;;10.75;3.95;;;29.40;59.40;;;;;;5073767;28;20020;-12
2022/06/26 07:51:07;;;;;;;7.85;4.07;;;29.50;59.30;;;;;;5073200;28;20380;-12
2022/06/26 07:53:33;;;;;;;9.02;4.50;;;29.70;58.50;;;;;;5073177;28;20025;-12
2022/06/26 07:55:59;;;;;;;13.73;5.07;;;29.80;57.90;;;;;;5073069;28;20032;-12
2022/06/26 07:58:25;;;;;;;10.27;5.10;;;29.90;57.50;;;;;;5071524;28;20034;-12
2022/06/26 08:00:51;;;;;;;12.35;4.68;;;29.90;57.30;;;;;;5073310;28;20434;-12
2022/06/26 08:03:16;;;;;;;11.50;4.68;;;29.90;57.60;;;;;;5073097;28;20427;-12
2022/06/26 08:05:43;;;;;;;12.07;5.10;;;30.00;57.60;;;;;;5075330;28;20554;-12
2022/06/26 08:08:09;;;;;;;9.82;5.00;;;30.10;57.00;;;;;;5076925;28;20037;-12
2022/06/26 08:10:36;;;;;;;9.77;4.57;;;30.30;56.90;;;;;;5076880;28;20021;-13
2022/06/26 08:13:04;;;;;;;8.45;4.45;;;30.40;56.50;;;;;;5076678;28;20045;-13
2022/06/26 08:15:30;;;;;;;10.68;5.15;;;30.70;56.00;;;;;;5075613;28;20384;-12
2022/06/26 08:17:56;;;;;;;8.90;5.10;;;30.90;55.60;;;;;;5077079;28;20051;-12
2022/06/26 08:20:22;;;;;;;13.57;5.00;;;31.00;55.10;;;;;;5075379;28;20475;-13
2022/06/26 08:22:48;;;;;;;11.57;5.35;;;31.00;54.20;;;;;;5076703;28;20028;-12
2022/06/26 08:25:14;;;;;;;10.52;4.68;;;31.20;53.20;;;;;;5076577;28;20029;-12
2022/06/26 08:27:40;;;;;;;10.10;4.45;;;31.40;53.70;;;;;;5076492;28;20162;-12
2022/06/26 08:30:07;;;;;;;9.68;4.45;;;31.70;53.50;;;;;;5076459;28;20116;-12
2022/06/26 08:32:33;;;;;;;9.10;4.05;;;32.00;51.10;;;;;;5076256;28;20035;-13
2022/06/26 08:34:59;;;;;;;6.32;3.70;;;32.20;50.50;;;;;;5076658;28;20031;-12
2022/06/26 08:37:25;;;;;;;11.95;4.05;;;32.50;50.20;;;;;;5076550;28;20392;-12
2022/06/26 08:39:51;;;;;;;8.68;4.80;;;32.90;49.90;;;;;;5076292;28;20388;-12
2022/06/26 08:42:18;;;;;;;9.63;4.20;;;33.00;49.30;;;;;;5076480;28;20420;-13
2022/06/26 08:44:45;;;;;;;9.23;4.10;;;32.90;49.10;;;;;;5076411;28;20029;-14
2022/06/26 08:47:13;;;;;;;8.23;4.43;;;32.90;48.60;;;;;;5076552;28;20038;-14
2022/06/26 08:49:43;;;;;;;10.82;4.50;;;33.10;48.90;;;;;;5076761;28;20103;-13
2022/06/26 08:52:13;;;;;;;11.57;4.65;;;33.20;48.30;;;;;;5076720;28;20032;-12
2022/06/26 08:54:39;;;;;;;12.48;4.75;;;33.30;48.10;;;;;;5076432;28;20103;-12
2022/06/26 08:57:05;;;;;;;9.23;4.10;;;33.10;48.40;;;;;;5074734;28;20082;-12
2022/06/26 08:59:32;;;;;;;10.18;4.25;;;32.80;49.10;;;;;;5076099;28;20029;-12
2022/06/26 09:01:57;;;;;;;8.05;3.80;;;32.80;48.50;;;;;;5075890;28;20025;-12
2022/06/26 09:04:24;;;;;;;11.15;4.05;;;33.00;48.90;;;;;;5075642;28;20025;-12
2022/06/26 09:06:50;;;;;;;9.38;3.65;;;33.40;47.80;;;;;;5075884;28;20017;-12
2022/06/26 09:09:25;;;;;;;7.97;4.30;;;33.80;47.50;;;;;;5076420;28;20017;-13
2022/06/26 09:11:56;;;;;;;7.15;3.50;;;34.20;45.90;;;;;;5075570;28;20127;-13
2022/06/26 09:14:23;;;;;;;8.47;4.57;;;34.50;45.70;;;;;;5075394;28;20079;-13
2022/06/26 09:16:51;;;;;;;14.15;4.35;;;34.90;44.40;;;;;;5075282;28;20036;-13
2022/06/26 09:19:20;;;;;;;5.22;3.20;;;35.20;43.60;;;;;;5075614;28;20082;-13
2022/06/26 09:21:50;;;;;;;8.85;3.33;;;35.50;43.20;;;;;;5075922;28;20039;-12
2022/06/26 09:24:18;;;;;;;8.52;3.58;;;35.90;43.30;;;;;;5075645;28;20039;-12
2022/06/26 09:26:45;;;;;;;8.57;3.55;;;36.30;42.20;;;;;;5075988;28;20025;-12
2022/06/26 09:29:14;;;;;;;7.95;3.30;;;36.50;41.80;;;;;;5075388;28;20024;-12
2022/06/26 09:31:40;;;;;;;8.63;3.60;;;36.70;41.30;;;;;;5075461;28;20059;-12
2022/06/26 09:34:18;;;;;;;7.10;3.50;;;36.60;41.20;;;;;;5075237;28;20028;-13
2022/06/26 09:36:58;;;;;;;6.97;3.40;;;36.70;41.00;;;;;;5075626;28;20377;-13
2022/06/26 09:39:25;;;;;;;8.48;3.25;;;36.90;40.30;;;;;;5074106;28;20025;-13
2022/06/26 09:41:51;;;;;;;8.25;3.80;;;37.20;40.40;;;;;;5075237;28;20433;-13
2022/06/26 09:44:18;;;;;;;8.48;3.38;;;37.20;38.00;;;;;;5075184;28;20028;-13
2022/06/26 09:46:44;;;;;;;7.63;3.35;;;37.20;38.70;;;;;;5075063;28;20028;-13
2022/06/26 09:49:11;;;;;;;9.18;3.45;;;37.30;38.60;;;;;;5075406;28;20527;-13
2022/06/26 09:51:39;;;;;;;9.07;3.42;;;37.50;37.60;;;;;;5075021;28;20032;-12
2022/06/26 09:54:06;;;;;;;6.82;2.90;;;37.60;37.00;;;;;;5075322;28;20520;-13
2022/06/26 09:56:33;;;;;;;6.28;3.10;;;37.70;37.40;;;;;;5075218;28;20070;-13
2022/06/26 09:58:59;;;;;;;8.70;3.25;;;38.00;36.40;;;;;;5074885;28;20028;-13
2022/06/26 10:07:07;;;;;;;4.90;2.80;;;38.40;36.20;;;;;;5075085;28;20154;-13
2022/06/26 10:09:35;;;;;;;6.75;3.80;;;38.70;35.80;;;;;;5075267;28;20536;-13
2022/06/26 10:12:03;;;;;;;8.35;3.53;;;38.80;35.30;;;;;;5073143;28;20135;-13
2022/06/26 10:14:35;;;;;;;8.07;3.45;;;38.70;34.70;;;;;;5074491;28;20383;-11
2022/06/26 10:17:09;;;;;;;9.40;3.63;;;38.40;35.40;;;;;;5074817;28;20090;-13
2022/06/26 10:19:52;;;;;;;8.07;3.33;;;38.30;35.90;;;;;;5074474;28;20035;-13
2022/06/26 10:22:19;;;;;;;7.13;3.50;;;38.30;35.00;;;;;;5074255;28;20100;-13
2022/06/26 10:25:02;;;;;;;7.88;3.03;;;38.20;36.10;;;;;;5075212;28;20025;-13
2022/06/26 10:27:33;;;;;;;7.60;2.97;;;38.30;35.50;;;;;;5074654;28;20036;-12
2022/06/26 10:30:07;;;;;;;12.02;3.95;;;38.60;35.10;;;;;;5073612;28;20039;-13
2022/06/26 10:32:33;;;;;;;9.20;3.30;;;38.90;33.20;;;;;;5075150;28;20033;-13
2022/06/26 10:34:59;;;;;;;13.35;3.55;;;39.20;34.10;;;;;;5074721;28;20029;-13
2022/06/26 10:37:26;;;;;;;8.15;2.90;;;39.30;34.00;;;;;;5072800;28;20392;-13
2022/06/26 10:39:55;;;;;;;10.35;2.70;;;39.50;33.70;;;;;;5074035;28;20471;-13
2022/06/26 10:45:31;;;;;;;5.88;2.75;;;40.10;32.00;;;;;;5074263;28;20027;-13
2022/06/26 10:48:00;;;;;;;7.95;3.10;;;40.30;31.90;;;;;;5074157;28;20468;-13
2022/06/26 10:50:31;;;;;;;7.25;2.97;;;40.40;31.60;;;;;;5074238;28;20472;-13
2022/06/26 10:53:17;;;;;;;8.50;3.00;;;40.40;31.20;;;;;;5073829;28;20037;-13
2022/06/26 10:55:52;;;;;;;6.45;3.00;;;40.30;31.50;;;;;;5073695;28;20060;-13
2022/06/26 10:58:27;;;;;;;6.72;3.28;;;40.60;31.50;;;;;;5073628;28;20025;-13
2022/06/26 11:00:57;;;;;;;5.93;2.88;;;40.90;30.40;;;;;;5073872;28;20097;-13
2022/06/26 11:03:24;;;;;;;4.15;2.67;;;41.00;30.80;;;;;;5073952;28;20024;-13
2022/06/26 11:06:02;;;;;;;8.90;2.72;;;41.10;30.80;;;;;;5073881;28;20032;-13
2022/06/26 11:08:37;;;;;;;5.88;2.75;;;41.40;30.50;;;;;;5073506;28;20028;-13
2022/06/26 11:11:14;;;;;;;7.22;3.10;;;41.70;30.50;;;;;;5074455;28;20032;-13
2022/06/26 11:13:57;;;;;;;5.45;2.70;;;41.80;30.10;;;;;;5073845;28;20036;-13
2022/06/26 11:16:31;;;;;;;6.90;2.85;;;41.30;30.30;;;;;;5073495;28;20032;-13
2022/06/26 11:18:58;;;;;;;4.43;2.65;;;40.90;30.70;;;;;;5072202;28;20020;-13
2022/06/26 11:21:26;;;;;;;7.68;2.65;;;41.00;31.10;;;;;;5073394;28;20027;-13
2022/06/26 11:23:54;;;;;;;5.38;2.60;;;41.40;30.50;;;;;;5073624;28;20052;-13
2022/06/26 11:26:21;;;;;;;5.75;2.63;;;41.90;29.90;;;;;;5073073;28;20472;-13
2022/06/26 11:28:58;;;;;;;10.90;3.25;;;41.90;29.40;;;;;;5073590;28;20443;-13
2022/06/26 11:31:26;;;;;;;8.32;2.70;;;41.60;29.80;;;;;;5073372;28;20039;-13
2022/06/26 11:33:53;;;;;;;9.60;2.80;;;41.70;29.90;;;;;;5073482;28;20031;-12
2022/06/26 11:36:22;;;;;;;9.95;3.10;;;42.00;28.10;;;;;;5073260;28;20515;-13
2022/06/26 11:38:48;;;;;;;6.00;2.70;;;42.20;28.40;;;;;;5073090;28;20029;-13
2022/06/26 11:41:14;;;;;;;6.70;2.58;;;42.50;28.50;;;;;;5072868;28;20032;-13
2022/06/26 11:43:46;;;;;;;5.00;2.58;;;42.90;28.30;;;;;;5073382;28;20028;-12
2022/06/26 11:46:13;;;;;;;5.47;2.33;;;43.30;27.60;;;;;;5072955;28;20480;-13
2022/06/26 11:48:39;;;;;;;5.15;2.47;;;43.60;26.80;;;;;;5073013;28;20422;-13
2022/06/26 11:51:05;;;;;;;4.88;2.30;;;43.90;26.80;;;;;;5073020;28;20024;-13
2022/06/26 11:53:33;;;;;;;4.68;2.45;;;44.20;26.30;;;;;;5073852;28;20055;-13
2022/06/26 11:56:02;;;;;;;9.55;2.80;;;44.30;26.00;;;;;;5072840;28;20029;-13
2022/06/26 11:58:31;;;;;;;6.88;2.50;;;44.50;25.80;;;;;;5072831;28;20024;-13
2022/06/26 12:01:11;;;;;;;7.38;2.75;;;44.50;26.10;;;;;;5073464;28;20020;-13
2022/06/26 12:03:46;;;;;;;8.57;2.53;;;44.60;25.40;;;;;;5072822;28;20086;-13
2022/06/26 12:06:25;;;;;;;4.80;2.33;;;44.50;25.60;;;;;;5072873;28;20039;-13
2022/06/26 12:08:51;;;;;;;7.70;2.85;;;44.20;26.50;;;;;;5072934;28;20033;-13
2022/06/26 12:11:17;;;;;;;5.68;2.72;;;44.40;26.30;;;;;;5072824;28;20028;-14
2022/06/26 12:13:43;;;;;;;7.32;2.60;;;44.50;26.30;;;;;;5073179;28;20399;-13
2022/06/26 12:16:11;;;;;;;5.53;2.45;;;44.70;26.50;;;;;;5072591;28;20392;-13
2022/06/26 12:18:39;;;;;;;5.75;2.22;;;44.90;26.50;;;;;;5072578;28;20020;-13
2022/06/26 12:21:19;;;;;;;6.65;2.40;;;45.20;25.80;;;;;;5073049;28;20115;-13
2022/06/26 12:23:47;;;;;;;4.30;2.50;;;45.30;25.50;;;;;;5071445;28;20021;-13
2022/06/26 12:26:18;;;;;;;6.45;2.47;;;45.30;26.00;;;;;;5072712;28;20024;-13
2022/06/26 12:28:52;;;;;;;;;;;45.40;25.40;;;;;;5073413;28;20029;-13
2022/06/26 12:31:21;;;;;;;5.18;2.40;;;45.50;25.70;;;;;;5072897;28;19904;-13
2022/06/26 12:33:48;;;;;;;5.90;2.33;;;45.60;25.20;;;;;;5072879;28;20567;-13
2022/06/26 12:36:15;;;;;;;12.45;2.75;;;45.50;25.50;;;;;;5072303;28;20040;-14
2022/06/26 12:38:43;;;;;;;4.07;2.40;;;45.50;24.90;;;;;;5072565;28;20037;-13
2022/06/26 12:41:18;;;;;;;5.10;2.40;;;45.40;24.80;;;;;;5072806;28;20024;-13
2022/06/26 12:43:55;;;;;;;7.60;2.38;;;45.50;25.00;;;;;;5072733;28;20024;-13
2022/06/26 12:46:22;;;;;;;6.30;2.40;;;45.60;24.70;;;;;;5073115;28;20031;-14
2022/06/26 12:48:48;;;;;;;9.25;2.78;;;45.80;24.70;;;;;;5072744;28;20021;-13
2022/06/26 12:51:15;;;;;;;7.63;2.50;;;46.00;24.20;;;;;;5072481;28;20500;-13
2022/06/26 12:53:42;;;;;;;6.15;2.60;;;46.00;24.10;;;;;;5076170;28;20052;-13